Abbott Park, Illinois
Current Conditions -  °F | °C
As of 10:14 AM on Thursday 18 Dec 2014 (Local Time) from KUGN Reporting Station
Broken Clouds Broken Clouds  
Wind Chill: 15°   Ceiling: 2700
Heat Index: 23°   Visibility: 10mi
Dew Point: 17°   Wind: 7mph
Humidity: 78%   Direction: NA
Pressure: 30.27"   Gusts: NA
Location:  42.3271°N, 87.865°W
Report Text: KUGN 181614Z VRB06KT 10SM BKN027 BKN032 M05/M08 A3027 RMK AO2 T10501083
Loading
Personal Weather Stations






























Interactive Weather Map New forecast layout! Learn more

10-Day Weather Forecast

Advertisements
Track Severe Weather on mobile